Time;durP1;ratioP1;P1;durP2;ratioP2;P2;SDS_P1;SDS_P2;PMS_P1;PMS_P2;Temp;Humidity;BMP_temperature;BMP_pressure;BME280_temperature;BME280_humidity;BME280_pressure;Samples;Min_cycle;Max_cycle;Signal;HPM_P1;HPM_P2
2023/03/17 00:01:53;;;;;;;5.00;3.77;;;6.10;76.90;;;;;;5088903;28;20571;-65
2023/03/17 00:04:25;;;;;;;6.03;4.43;;;6.10;77.00;;;;;;5105496;28;20647;-64
2023/03/17 00:06:53;;;;;;;6.70;4.20;;;6.10;77.10;;;;;;5087499;28;20201;-65
2023/03/17 00:09:21;;;;;;;9.17;3.93;;;6.10;77.20;;;;;;5090413;28;20587;-65
2023/03/17 00:11:48;;;;;;;5.33;4.20;;;6.00;77.00;;;;;;5089143;28;20196;-64
2023/03/17 00:14:16;;;;;;;6.70;4.10;;;6.00;77.20;;;;;;5089942;28;20201;-65
2023/03/17 00:16:48;;;;;;;5.50;4.53;;;6.00;77.30;;;;;;5087992;28;20189;-65
2023/03/17 00:19:28;;;;;;;5.70;3.73;;;6.00;77.40;;;;;;5091340;28;20188;-65
2023/03/17 00:21:57;;;;;;;4.67;3.70;;;5.90;77.60;;;;;;5087889;28;20543;-65
2023/03/17 00:24:25;;;;;;;7.00;4.63;;;5.90;77.70;;;;;;5090965;28;20189;-65
2023/03/17 00:26:52;;;;;;;7.37;4.90;;;5.90;77.70;;;;;;5089677;28;20280;-65
2023/03/17 00:29:19;;;;;;;10.27;5.57;;;5.90;77.70;;;;;;5087076;28;20197;-65
2023/03/17 00:31:49;;;;;;;7.00;4.80;;;5.90;77.70;;;;;;5091177;28;20204;-66
2023/03/17 00:34:18;;;;;;;8.57;5.10;;;5.90;77.80;;;;;;5091312;28;20200;-65
2023/03/17 00:36:48;;;;;;;7.20;4.37;;;5.90;77.90;;;;;;5092421;28;20257;-65
2023/03/17 00:39:16;;;;;;;9.30;4.70;;;5.90;77.90;;;;;;5090640;28;20204;-65
2023/03/17 00:41:43;;;;;;;8.83;5.00;;;5.80;77.70;;;;;;5090235;28;20209;-65
2023/03/17 00:44:10;;;;;;;9.17;4.37;;;5.80;77.70;;;;;;5088499;28;20309;-65
2023/03/17 00:46:40;;;;;;;8.33;4.77;;;5.80;77.60;;;;;;5090735;28;20220;-65
2023/03/17 00:49:16;;;;;;;9.97;5.57;;;5.80;77.70;;;;;;5091566;28;20211;-65
2023/03/17 00:51:43;;;;;;;10.10;4.67;;;5.80;78.10;;;;;;5087373;28;20219;-65
2023/03/17 00:54:12;;;;;;;7.87;5.27;;;5.80;78.20;;;;;;5090911;28;20272;-65
2023/03/17 00:56:41;;;;;;;9.70;4.43;;;5.80;78.90;;;;;;5089383;28;20541;-65
2023/03/17 00:59:32;;;;;;;7.47;5.17;;;5.80;78.30;;;;;;5090172;28;20257;-65
2023/03/17 01:01:59;;;;;;;7.90;4.77;;;5.80;78.40;;;;;;5088858;28;20201;-64
2023/03/17 01:04:26;;;;;;;7.47;4.87;;;5.80;78.20;;;;;;5090548;28;20517;-65
2023/03/17 01:06:53;;;;;;;6.73;5.07;;;5.80;78.30;;;;;;5089641;28;20280;-65
2023/03/17 01:09:25;;;;;;;7.50;5.70;;;5.80;78.20;;;;;;5089918;28;20198;-65
2023/03/17 01:11:53;;;;;;;10.07;5.37;;;5.80;78.20;;;;;;5091210;28;20197;-65
2023/03/17 01:14:21;;;;;;;5.73;4.73;;;5.80;78.40;;;;;;5093650;28;20197;-64
2023/03/17 01:16:48;;;;;;;10.10;5.00;;;5.80;78.50;;;;;;5092933;28;20306;-65
2023/03/17 01:19:15;;;;;;;7.17;5.10;;;5.70;78.60;;;;;;5095204;28;20630;-65
2023/03/17 01:21:43;;;;;;;8.30;4.60;;;5.70;78.50;;;;;;5088857;28;20590;-65
2023/03/17 01:24:11;;;;;;;6.63;5.07;;;5.70;78.60;;;;;;5090174;28;20208;-65
2023/03/17 01:26:39;;;;;;;8.13;4.83;;;5.70;78.70;;;;;;5091558;28;20247;-64
2023/03/17 01:29:06;;;;;;;6.20;5.17;;;5.60;78.70;;;;;;5093258;28;20203;-65
2023/03/17 01:31:34;;;;;;;6.53;4.27;;;5.60;78.80;;;;;;5094230;28;20653;-65
2023/03/17 01:34:01;;;;;;;6.40;4.63;;;5.60;78.70;;;;;;5090077;28;20197;-65
2023/03/17 01:36:28;;;;;;;5.63;4.20;;;5.60;78.60;;;;;;5086889;28;20614;-65
2023/03/17 01:38:56;;;;;;;5.70;5.03;;;5.50;78.70;;;;;;5092212;28;20255;-65
2023/03/17 01:41:23;;;;;;;5.60;4.43;;;5.50;78.50;;;;;;5084108;28;20201;-65
2023/03/17 01:43:50;;;;;;;8.80;5.10;;;5.40;78.50;;;;;;5086801;28;20388;-66
2023/03/17 01:46:20;;;;;;;4.53;4.10;;;5.40;79.40;;;;;;5093157;28;20225;-65
2023/03/17 01:49:14;;;;;;;7.07;4.73;;;5.30;78.90;;;;;;5093081;28;20212;-65
2023/03/17 01:52:08;;;;;;;7.57;5.43;;;5.30;79.30;;;;;;5091306;28;20220;-65
2023/03/17 01:54:38;;;;;;;5.47;4.80;;;5.20;79.40;;;;;;5105858;28;20209;-66
2023/03/17 01:57:15;;;;;;;10.53;5.57;;;5.20;80.00;;;;;;5109399;28;20700;-65
2023/03/17 01:59:52;;;;;;;7.37;4.93;;;5.20;80.10;;;;;;5090304;28;20565;-65
2023/03/17 02:02:29;;;;;;;11.60;5.53;;;5.10;80.90;;;;;;5084506;28;20201;-65
2023/03/17 02:04:57;;;;;;;6.13;5.47;;;5.10;80.30;;;;;;5090202;28;20315;-65
2023/03/17 02:07:25;;;;;;;7.90;5.93;;;5.10;80.30;;;;;;5092033;28;20630;-65
2023/03/17 02:09:53;;;;;;;9.40;5.90;;;5.10;80.40;;;;;;5090045;28;20193;-65
2023/03/17 02:12:23;;;;;;;9.50;6.07;;;5.00;80.70;;;;;;5094169;28;20217;-65
2023/03/17 02:14:51;;;;;;;9.47;5.53;;;5.00;81.00;;;;;;5113222;27;20229;-66
2023/03/17 02:17:20;;;;;;;7.53;5.47;;;5.00;81.40;;;;;;5091909;28;20190;-65
2023/03/17 02:19:48;;;;;;;9.87;6.27;;;4.90;81.50;;;;;;5092494;28;20189;-65
2023/03/17 02:22:19;;;;;;;11.53;5.70;;;4.90;81.70;;;;;;5070188;28;20198;-65
2023/03/17 02:24:55;;;;;;;7.20;5.30;;;4.90;81.60;;;;;;5093087;28;20789;-65
2023/03/17 02:27:35;;;;;;;6.93;5.47;;;4.90;81.60;;;;;;5091812;28;20207;-65
2023/03/17 02:30:05;;;;;;;7.03;4.37;;;4.80;81.60;;;;;;5090330;28;20288;-65
2023/03/17 02:32:35;;;;;;;11.27;5.40;;;4.80;81.70;;;;;;5089579;28;20192;-65
2023/03/17 02:35:02;;;;;;;10.13;5.13;;;4.70;81.80;;;;;;5092904;28;20201;-65
2023/03/17 02:37:30;;;;;;;12.87;5.63;;;4.60;81.90;;;;;;5086498;28;20303;-65
2023/03/17 02:40:00;;;;;;;7.57;5.13;;;4.60;82.20;;;;;;5091502;28;20510;-65
2023/03/17 02:42:28;;;;;;;5.93;4.53;;;4.60;82.60;;;;;;5092462;28;20205;-65
2023/03/17 02:44:57;;;;;;;11.13;5.77;;;4.60;82.60;;;;;;5090045;28;20581;-67
2023/03/17 02:47:24;;;;;;;9.97;5.10;;;4.60;82.10;;;;;;5091368;28;20201;-65
2023/03/17 02:49:52;;;;;;;7.07;5.60;;;4.50;82.00;;;;;;5090768;28;20277;-65
2023/03/17 02:52:19;;;;;;;11.93;5.47;;;4.50;82.30;;;;;;5093933;28;20231;-65
2023/03/17 02:54:46;;;;;;;7.47;5.30;;;4.40;82.40;;;;;;5091697;28;20645;-65
2023/03/17 02:57:13;;;;;;;7.97;4.83;;;4.40;82.50;;;;;;5093518;28;20189;-65
2023/03/17 02:59:40;;;;;;;10.10;5.27;;;4.40;82.60;;;;;;5090716;28;20586;-65
2023/03/17 03:02:08;;;;;;;10.73;5.37;;;4.40;82.70;;;;;;5092552;28;20197;-65
2023/03/17 03:04:35;;;;;;;7.90;4.77;;;4.30;82.70;;;;;;5090585;28;20530;-65
2023/03/17 03:07:02;;;;;;;7.97;5.53;;;4.30;83.00;;;;;;5091516;28;20266;-65
2023/03/17 03:09:29;;;;;;;5.73;4.43;;;4.30;83.10;;;;;;5091229;28;20200;-65
2023/03/17 03:11:56;;;;;;;7.37;4.60;;;4.30;83.20;;;;;;5091373;28;20234;-65
2023/03/17 03:14:23;;;;;;;9.40;5.03;;;4.20;83.30;;;;;;5093130;28;20200;-65
2023/03/17 03:16:51;;;;;;;7.67;5.57;;;4.20;83.20;;;;;;5091781;28;20211;-65
2023/03/17 03:19:18;;;;;;;8.13;5.00;;;4.10;83.20;;;;;;5092029;28;20205;-65
2023/03/17 03:21:45;;;;;;;10.00;5.10;;;4.10;83.50;;;;;;5093437;28;20236;-66
2023/03/17 03:24:12;;;;;;;7.97;5.23;;;4.10;83.60;;;;;;5089374;28;20523;-66
2023/03/17 03:26:40;;;;;;;7.17;4.77;;;4.10;83.60;;;;;;5092371;28;20224;-65
2023/03/17 03:29:07;;;;;;;7.67;4.83;;;4.10;83.70;;;;;;5087737;28;20227;-65
2023/03/17 03:31:35;;;;;;;13.33;5.27;;;4.00;83.80;;;;;;5090517;28;20193;-66
2023/03/17 03:34:01;;;;;;;7.17;5.40;;;4.00;83.90;;;;;;5091415;28;20303;-66
2023/03/17 03:36:29;;;;;;;7.80;5.60;;;3.90;83.80;;;;;;5089686;28;20212;-66
2023/03/17 03:38:56;;;;;;;9.90;5.17;;;3.90;84.00;;;;;;5090451;28;20292;-65
2023/03/17 03:41:23;;;;;;;8.10;5.60;;;3.90;84.10;;;;;;5089051;28;20271;-65
2023/03/17 03:43:51;;;;;;;5.60;4.70;;;3.90;84.30;;;;;;5089410;28;20249;-66
2023/03/17 03:46:18;;;;;;;8.23;5.27;;;3.90;84.30;;;;;;5086808;28;20224;-65
2023/03/17 03:48:45;;;;;;;7.87;4.77;;;3.90;84.20;;;;;;5089942;28;20216;-66
2023/03/17 03:51:12;;;;;;;6.10;4.77;;;3.80;84.00;;;;;;5089878;28;20200;-65
2023/03/17 03:53:39;;;;;;;5.73;4.47;;;3.80;83.90;;;;;;5088599;28;20292;-65
2023/03/17 03:56:06;;;;;;;7.00;5.70;;;3.80;84.00;;;;;;5091405;28;20206;-65
2023/03/17 03:58:33;;;;;;;11.90;5.53;;;3.80;84.20;;;;;;5090010;28;20246;-65
2023/03/17 04:01:05;;;;;;;6.63;5.17;;;3.80;84.50;;;;;;5092807;28;20205;-65
2023/03/17 04:03:32;;;;;;;7.60;5.20;;;3.80;84.90;;;;;;5092400;28;20211;-65
2023/03/17 04:05:59;;;;;;;7.43;5.20;;;3.80;85.20;;;;;;5091728;28;20577;-66
2023/03/17 04:08:26;;;;;;;9.60;5.87;;;3.80;85.40;;;;;;5090499;28;20207;-65
2023/03/17 04:10:53;;;;;;;6.57;5.37;;;3.70;85.50;;;;;;5090806;28;20197;-66
2023/03/17 04:13:20;;;;;;;12.43;5.00;;;3.70;85.80;;;;;;5091746;28;20208;-66
2023/03/17 04:15:47;;;;;;;6.70;5.40;;;3.70;86.10;;;;;;5091800;28;20223;-66
2023/03/17 04:18:15;;;;;;;8.07;6.13;;;3.70;86.50;;;;;;5090676;28;20274;-65
2023/03/17 04:20:42;;;;;;;11.90;6.17;;;3.70;86.80;;;;;;5091721;28;20286;-65
2023/03/17 04:23:09;;;;;;;12.60;5.90;;;3.70;87.00;;;;;;5091058;28;20258;-65
2023/03/17 04:25:36;;;;;;;10.47;6.17;;;3.70;87.20;;;;;;5092068;28;20337;-66
2023/03/17 04:28:04;;;;;;;6.90;5.77;;;3.70;87.30;;;;;;5089087;28;20193;-66
2023/03/17 04:30:31;;;;;;;7.50;5.63;;;3.70;87.40;;;;;;5089988;28;20199;-65
2023/03/17 04:32:59;;;;;;;6.37;5.07;;;3.70;87.50;;;;;;5090562;28;20195;-66
2023/03/17 04:35:26;;;;;;;7.27;5.37;;;3.60;87.40;;;;;;5089775;28;20221;-66
2023/03/17 04:37:53;;;;;;;10.00;6.20;;;3.60;87.70;;;;;;5088109;28;20201;-65
2023/03/17 04:40:20;;;;;;;9.53;6.03;;;3.70;87.60;;;;;;5090535;28;20610;-66
2023/03/17 04:42:47;;;;;;;9.03;5.80;;;3.70;87.60;;;;;;5089836;28;20271;-66
2023/03/17 04:45:15;;;;;;;8.70;4.90;;;3.60;87.40;;;;;;5084789;28;20210;-66
2023/03/17 04:47:44;;;;;;;9.73;5.60;;;3.60;87.50;;;;;;5092159;28;20688;-65
2023/03/17 04:50:13;;;;;;;6.00;4.80;;;3.60;87.50;;;;;;5093446;28;20250;-65
2023/03/17 04:52:40;;;;;;;7.03;4.83;;;3.60;87.70;;;;;;5094974;28;20692;-65
2023/03/17 04:55:08;;;;;;;6.70;4.93;;;3.60;87.70;;;;;;5093936;28;20197;-66
2023/03/17 04:57:36;;;;;;;6.97;5.27;;;3.60;87.50;;;;;;5094389;28;20324;-66
2023/03/17 05:00:05;;;;;;;6.70;5.30;;;3.60;87.30;;;;;;5095375;28;20194;-65
2023/03/17 05:02:32;;;;;;;7.17;5.60;;;3.60;87.30;;;;;;5093746;28;20265;-66
2023/03/17 05:04:59;;;;;;;6.13;5.30;;;3.60;87.40;;;;;;5094716;28;20203;-65
2023/03/17 05:07:26;;;;;;;7.67;4.90;;;3.60;87.40;;;;;;5094439;28;20376;-66
2023/03/17 05:09:53;;;;;;;9.40;4.50;;;3.50;87.20;;;;;;5094214;28;20204;-66
2023/03/17 05:12:20;;;;;;;9.97;4.97;;;3.60;87.00;;;;;;5095409;28;20208;-65
2023/03/17 05:14:47;;;;;;;9.67;5.13;;;3.50;86.80;;;;;;5094144;28;20226;-65
2023/03/17 05:17:14;;;;;;;8.70;4.40;;;3.50;86.80;;;;;;5093396;28;20299;-66
2023/03/17 05:19:41;;;;;;;8.43;5.23;;;3.50;86.70;;;;;;5094146;28;20655;-66
2023/03/17 05:22:08;;;;;;;7.03;5.57;;;3.50;86.90;;;;;;5075013;28;20205;-66
2023/03/17 05:24:35;;;;;;;10.67;4.87;;;3.50;87.10;;;;;;5095278;28;20600;-66
2023/03/17 05:27:02;;;;;;;9.40;5.80;;;3.50;87.30;;;;;;5091974;28;20251;-66
2023/03/17 05:29:29;;;;;;;8.77;5.73;;;3.50;87.60;;;;;;5094980;28;20197;-66
2023/03/17 05:31:56;;;;;;;7.60;6.10;;;3.60;88.00;;;;;;5092488;28;20197;-66
2023/03/17 05:34:23;;;;;;;8.90;5.87;;;3.60;88.10;;;;;;5092328;28;20201;-67
2023/03/17 05:36:50;;;;;;;5.93;5.33;;;3.60;88.20;;;;;;5094484;28;20204;-66
2023/03/17 05:39:17;;;;;;;6.07;5.30;;;3.60;88.20;;;;;;5094975;28;20236;-66
2023/03/17 05:41:44;;;;;;;9.00;5.23;;;3.70;88.10;;;;;;5093699;28;20242;-66
2023/03/17 05:44:11;;;;;;;8.53;5.53;;;3.70;87.90;;;;;;5088865;28;20322;-66
2023/03/17 05:46:38;;;;;;;9.00;5.77;;;3.70;87.90;;;;;;5094750;28;20322;-66
2023/03/17 05:49:05;;;;;;;6.67;5.63;;;3.80;88.00;;;;;;5092867;28;20192;-65
2023/03/17 05:51:32;;;;;;;8.00;5.00;;;3.80;88.00;;;;;;5092920;28;20288;-66
2023/03/17 05:54:02;;;;;;;6.07;4.63;;;3.90;88.20;;;;;;5094634;28;20212;-66
2023/03/17 05:56:32;;;;;;;6.80;5.27;;;4.00;88.40;;;;;;5091857;28;20200;-66
2023/03/17 05:59:00;;;;;;;9.23;5.80;;;4.00;88.50;;;;;;5092527;28;20294;-65
2023/03/17 06:01:28;;;;;;;5.37;4.70;;;4.10;88.60;;;;;;5093741;28;20208;-66
2023/03/17 06:03:55;;;;;;;5.87;4.73;;;4.20;88.50;;;;;;5094700;28;20228;-66
2023/03/17 06:06:23;;;;;;;10.40;5.93;;;4.40;88.20;;;;;;5092939;28;20571;-65
2023/03/17 06:08:50;;;;;;;6.60;4.90;;;4.50;88.00;;;;;;5094693;28;20208;-65
2023/03/17 06:11:19;;;;;;;8.63;6.10;;;4.60;88.00;;;;;;5091599;28;20204;-65
2023/03/17 06:13:46;;;;;;;9.10;6.17;;;4.70;88.00;;;;;;5093109;28;20215;-66
2023/03/17 06:16:13;;;;;;;9.53;6.33;;;4.80;88.10;;;;;;5092080;28;20280;-66
2023/03/17 06:18:40;;;;;;;6.80;5.70;;;5.00;88.20;;;;;;5093996;28;20209;-65
2023/03/17 06:21:07;;;;;;;8.07;5.67;;;5.30;87.30;;;;;;5093091;28;20219;-65
2023/03/17 06:23:35;;;;;;;6.73;5.77;;;5.30;86.40;;;;;;5093282;28;20209;-65
2023/03/17 06:26:02;;;;;;;7.93;5.53;;;5.40;86.20;;;;;;5091962;28;20193;-65
2023/03/17 06:28:29;;;;;;;9.20;7.00;;;5.50;86.10;;;;;;5093134;28;20197;-66
2023/03/17 06:30:56;;;;;;;10.47;7.20;;;5.60;86.20;;;;;;5092559;28;20250;-65
2023/03/17 06:33:24;;;;;;;8.87;6.73;;;5.60;86.30;;;;;;5070634;28;20675;-65
2023/03/17 06:35:52;;;;;;;9.87;6.40;;;5.80;86.30;;;;;;5089413;28;20201;-65
2023/03/17 06:38:19;;;;;;;11.73;7.60;;;6.00;86.20;;;;;;5094481;28;20194;-65
2023/03/17 06:40:46;;;;;;;12.17;7.10;;;6.20;85.60;;;;;;5092794;28;20225;-65
2023/03/17 06:43:13;;;;;;;11.17;7.17;;;6.50;86.10;;;;;;5089062;28;20612;-65
2023/03/17 06:45:40;;;;;;;9.43;7.00;;;6.70;84.60;;;;;;5092449;28;20642;-65
2023/03/17 06:48:08;;;;;;;8.83;7.30;;;6.90;83.60;;;;;;5090718;28;20576;-65
2023/03/17 06:50:35;;;;;;;14.87;7.17;;;7.10;83.20;;;;;;5084451;28;20623;-65
2023/03/17 06:53:02;;;;;;;9.97;7.60;;;7.30;82.60;;;;;;5089502;28;20259;-65
2023/03/17 06:55:30;;;;;;;8.83;7.20;;;7.50;82.20;;;;;;5092726;28;20194;-65
2023/03/17 06:57:57;;;;;;;11.03;7.00;;;7.70;81.60;;;;;;5094069;28;20197;-65
2023/03/17 07:00:25;;;;;;;11.53;7.27;;;7.90;81.00;;;;;;5088757;28;20196;-65
2023/03/17 07:02:52;;;;;;;9.33;7.40;;;8.20;80.10;;;;;;5093671;28;20201;-66
2023/03/17 07:05:19;;;;;;;11.60;7.03;;;8.30;79.30;;;;;;5091356;28;20210;-65
2023/03/17 07:07:46;;;;;;;7.53;6.50;;;8.50;78.90;;;;;;5091643;28;20210;-65
2023/03/17 07:10:14;;;;;;;9.43;7.20;;;8.50;78.20;;;;;;5091279;28;20190;-65
2023/03/17 07:12:42;;;;;;;10.63;7.87;;;8.50;78.00;;;;;;5090870;28;20619;-66
2023/03/17 07:15:12;;;;;;;9.03;7.73;;;8.40;78.20;;;;;;5086914;28;20195;-65
2023/03/17 07:17:39;;;;;;;8.40;6.90;;;8.40;78.50;;;;;;5090951;28;20205;-66
2023/03/17 07:20:08;;;;;;;10.70;6.40;;;8.40;79.00;;;;;;5091266;28;20247;-65
2023/03/17 07:22:35;;;;;;;8.57;6.20;;;8.50;79.30;;;;;;5089672;28;20245;-65
2023/03/17 07:25:02;;;;;;;17.43;7.73;;;8.60;79.00;;;;;;5089385;28;20297;-65
2023/03/17 07:27:30;;;;;;;10.73;6.67;;;8.60;79.20;;;;;;5092944;28;20606;-65
2023/03/17 07:29:59;;;;;;;8.07;6.60;;;8.70;78.20;;;;;;5088501;28;20275;-65
2023/03/17 07:32:26;;;;;;;15.10;7.17;;;8.70;77.90;;;;;;5091578;28;20216;-65
2023/03/17 07:34:54;;;;;;;12.33;7.80;;;8.80;78.00;;;;;;5091666;28;20206;-65
2023/03/17 07:37:21;;;;;;;8.93;7.00;;;9.00;78.20;;;;;;5089484;28;20201;-65
2023/03/17 07:39:48;;;;;;;13.93;7.53;;;9.00;78.10;;;;;;5090811;28;20229;-65
2023/03/17 07:42:16;;;;;;;11.40;7.10;;;9.20;77.80;;;;;;5089427;28;20204;-65
2023/03/17 07:44:43;;;;;;;10.03;6.43;;;9.30;77.10;;;;;;5090329;28;20214;-65
2023/03/17 07:47:10;;;;;;;11.00;6.90;;;9.50;76.40;;;;;;5087792;28;20622;-65
2023/03/17 07:49:39;;;;;;;10.97;6.60;;;9.70;76.30;;;;;;5091470;28;20648;-65
2023/03/17 07:52:10;;;;;;;8.23;6.10;;;9.90;75.80;;;;;;5084353;28;20511;-65
2023/03/17 07:54:38;;;;;;;10.63;6.33;;;10.10;75.30;;;;;;5090576;28;20208;-65
2023/03/17 07:57:09;;;;;;;7.37;5.03;;;10.20;74.10;;;;;;5083247;28;20198;-66
2023/03/17 07:59:37;;;;;;;7.23;5.40;;;10.40;73.10;;;;;;5089930;28;20237;-66
2023/03/17 08:02:05;;;;;;;9.17;5.67;;;10.60;71.80;;;;;;5089104;28;20554;-65
2023/03/17 08:04:33;;;;;;;12.13;5.40;;;10.70;71.00;;;;;;5089508;28;20667;-62
2023/03/17 08:07:00;;;;;;;8.97;6.13;;;10.80;70.90;;;;;;5090854;28;20613;-65
2023/03/17 08:09:27;;;;;;;11.53;6.17;;;11.00;70.70;;;;;;5087259;28;20235;-66
2023/03/17 08:11:54;;;;;;;7.80;5.30;;;11.20;70.10;;;;;;5089155;28;20304;-65
2023/03/17 08:14:21;;;;;;;7.77;5.40;;;11.40;70.00;;;;;;5088405;28;20290;-67
2023/03/17 08:16:48;;;;;;;7.83;5.50;;;11.50;69.70;;;;;;5089465;28;20267;-67
2023/03/17 08:19:15;;;;;;;7.03;5.30;;;11.70;69.30;;;;;;5092336;28;20540;-67
2023/03/17 08:21:42;;;;;;;7.83;5.83;;;11.90;68.90;;;;;;5089286;28;20218;-65
2023/03/17 08:24:09;;;;;;;6.10;5.07;;;12.10;68.60;;;;;;5089499;28;20205;-62
2023/03/17 08:26:37;;;;;;;9.17;4.47;;;12.30;68.50;;;;;;5089765;28;20201;-64
2023/03/17 08:29:04;;;;;;;4.73;4.10;;;12.40;67.40;;;;;;5091894;28;20201;-66
2023/03/17 08:31:32;;;;;;;5.67;4.20;;;12.60;67.00;;;;;;5091340;28;20198;-63
2023/03/17 08:34:01;;;;;;;5.00;4.50;;;12.80;65.60;;;;;;5091161;28;20205;-64
2023/03/17 08:36:29;;;;;;;4.70;3.50;;;13.00;65.20;;;;;;5089583;28;20203;-66
2023/03/17 08:38:56;;;;;;;4.87;3.70;;;13.20;62.60;;;;;;5091155;28;20200;-66
2023/03/17 08:41:25;;;;;;;4.73;3.03;;;13.30;62.30;;;;;;5089199;28;20225;-68
2023/03/17 08:43:53;;;;;;;6.47;3.70;;;13.50;61.50;;;;;;5090365;28;20251;-63
2023/03/17 08:46:26;;;;;;;5.40;3.47;;;13.60;61.00;;;;;;5090022;28;20235;-67
2023/03/17 08:48:55;;;;;;;4.53;2.93;;;13.70;60.80;;;;;;5092033;28;20201;-66
2023/03/17 08:51:25;;;;;;;4.13;3.00;;;13.90;60.30;;;;;;5088126;28;20309;-67
2023/03/17 08:53:53;;;;;;;3.90;3.13;;;14.10;59.10;;;;;;5092117;28;20447;-66
2023/03/17 08:56:21;;;;;;;4.30;2.90;;;14.30;58.50;;;;;;5088549;28;20217;-68
2023/03/17 08:58:49;;;;;;;4.30;2.70;;;14.40;58.30;;;;;;5089307;28;20533;-65
2023/03/17 09:01:19;;;;;;;3.63;2.50;;;14.50;57.60;;;;;;5090420;28;20228;-65
2023/03/17 09:03:48;;;;;;;5.00;2.37;;;14.60;56.60;;;;;;5089404;28;20270;-65
2023/03/17 09:06:15;;;;;;;2.20;2.00;;;14.70;56.60;;;;;;5089974;28;20205;-64
2023/03/17 09:08:46;;;;;;;3.10;2.47;;;14.80;57.00;;;;;;5085345;28;20218;-64
2023/03/17 09:11:16;;;;;;;5.10;2.10;;;14.90;56.60;;;;;;5090984;28;20677;-65
2023/03/17 09:13:45;;;;;;;2.63;2.00;;;14.90;56.80;;;;;;5092975;28;20201;-63
2023/03/17 09:16:16;;;;;;;6.47;2.30;;;15.00;56.60;;;;;;5092225;28;20658;-66
2023/03/17 09:18:45;;;;;;;2.90;1.50;;;15.00;57.10;;;;;;5092881;28;20221;-64
2023/03/17 09:21:14;;;;;;;2.63;2.17;;;15.10;55.90;;;;;;5090025;28;20701;-65
2023/03/17 09:23:41;;;;;;;3.50;2.10;;;15.10;56.40;;;;;;5084990;28;20566;-65
2023/03/17 09:26:09;;;;;;;3.67;2.27;;;15.20;56.30;;;;;;5081806;28;20698;-67
2023/03/17 09:28:36;;;;;;;2.23;2.03;;;15.20;56.20;;;;;;5090807;28;20658;-63
2023/03/17 09:31:06;;;;;;;3.13;2.03;;;15.20;56.40;;;;;;5089104;28;20201;-66
2023/03/17 09:33:33;;;;;;;4.80;2.40;;;15.30;54.60;;;;;;5093069;28;20209;-65
2023/03/17 09:36:00;;;;;;;3.50;1.80;;;15.30;56.50;;;;;;5093809;28;20205;-65
2023/03/17 09:38:29;;;;;;;3.00;2.37;;;15.40;55.90;;;;;;5093909;28;20213;-65
2023/03/17 09:41:14;;;;;;;3.67;2.10;;;15.40;55.90;;;;;;5091017;28;20258;-63
2023/03/17 09:43:42;;;;;;;2.80;2.00;;;15.50;56.30;;;;;;5092145;28;20245;-64
2023/03/17 09:46:46;;;;;;;2.30;1.87;;;15.60;56.60;;;;;;5095025;28;20681;-63
2023/03/17 09:49:24;;;;;;;2.73;1.90;;;15.60;55.40;;;;;;5094718;28;20213;-66
2023/03/17 09:51:52;;;;;;;2.43;1.80;;;15.70;55.10;;;;;;5091022;28;20216;-65
2023/03/17 09:54:19;;;;;;;4.10;2.47;;;15.80;55.30;;;;;;5094938;28;20193;-66
2023/03/17 09:56:53;;;;;;;2.80;2.23;;;15.80;55.20;;;;;;5089520;28;20214;-66
2023/03/17 09:59:34;;;;;;;4.07;2.00;;;15.90;54.30;;;;;;5090472;28;20208;-66
2023/03/17 10:02:01;;;;;;;2.17;1.70;;;15.90;53.60;;;;;;5093875;28;20231;-66
2023/03/17 10:04:28;;;;;;;7.37;2.27;;;16.00;54.00;;;;;;5093613;28;20197;-66
2023/03/17 10:07:03;;;;;;;3.23;2.10;;;16.00;54.30;;;;;;5088001;28;20279;-64
2023/03/17 10:09:39;;;;;;;3.40;2.17;;;16.10;54.10;;;;;;5094727;28;20231;-66
2023/03/17 10:12:36;;;;;;;3.17;2.03;;;16.10;54.00;;;;;;5087251;28;20212;-64
2023/03/17 10:15:14;;;;;;;6.17;2.37;;;16.20;53.70;;;;;;5092487;28;20221;-67
2023/03/17 10:17:42;;;;;;;4.43;2.63;;;16.20;53.90;;;;;;5094169;28;20599;-67
2023/03/17 10:20:32;;;;;;;2.03;1.80;;;16.20;53.80;;;;;;5092994;28;20649;-65
2023/03/17 10:23:12;;;;;;;3.00;1.73;;;16.30;53.90;;;;;;5094119;28;20196;-64
2023/03/17 10:25:40;;;;;;;3.33;1.90;;;16.30;53.20;;;;;;5093069;28;20250;-64
2023/03/17 10:28:29;;;;;;;2.00;1.80;;;16.30;52.80;;;;;;5092355;28;20206;-65
2023/03/17 10:31:16;;;;;;;2.33;2.10;;;16.40;53.30;;;;;;5091394;28;20195;-65
2023/03/17 10:33:48;;;;;;;2.73;1.80;;;16.50;52.90;;;;;;5092457;28;20263;-64
2023/03/17 10:36:30;;;;;;;2.67;1.83;;;16.50;52.80;;;;;;5091752;28;20509;-64
2023/03/17 10:38:57;;;;;;;5.27;2.03;;;16.50;51.70;;;;;;5090191;28;20266;-63
2023/03/17 10:41:34;;;;;;;3.93;2.43;;;16.60;51.50;;;;;;5093672;28;20244;-65
2023/03/17 10:44:20;;;;;;;2.40;2.00;;;16.70;52.50;;;;;;5091699;28;20234;-66
2023/03/17 10:46:55;;;;;;;2.47;2.03;;;16.80;52.80;;;;;;5088857;28;20628;-64
2023/03/17 10:49:25;;;;;;;4.37;2.07;;;16.80;52.70;;;;;;5090330;28;20298;-65
2023/03/17 10:51:54;;;;;;;3.40;2.30;;;16.90;52.40;;;;;;5093568;28;20205;-65
2023/03/17 10:54:24;;;;;;;2.30;1.90;;;17.00;52.40;;;;;;5088037;28;20195;-65
2023/03/17 10:57:07;;;;;;;2.87;2.33;;;17.00;51.40;;;;;;5093095;28;20191;-66
2023/03/17 10:59:45;;;;;;;3.50;1.93;;;17.00;50.20;;;;;;5090836;28;20604;-64
2023/03/17 11:02:29;;;;;;;2.47;2.00;;;17.00;50.90;;;;;;5091857;28;20290;-61
2023/03/17 11:05:03;;;;;;;5.07;2.60;;;17.00;49.20;;;;;;5084526;28;20202;-64
2023/03/17 11:07:39;;;;;;;2.67;2.30;;;16.90;50.90;;;;;;5092575;28;20215;-64
2023/03/17 11:10:20;;;;;;;2.97;2.27;;;16.90;52.20;;;;;;5089891;28;20204;-64
2023/03/17 11:12:53;;;;;;;4.50;2.40;;;16.90;52.30;;;;;;5091441;28;20200;-64
2023/03/17 11:15:21;;;;;;;3.13;2.43;;;16.90;51.30;;;;;;5092144;28;20203;-63
2023/03/17 11:18:01;;;;;;;3.93;2.10;;;17.00;51.80;;;;;;5092509;28;20656;-65
2023/03/17 11:21:11;;;;;;;3.13;2.50;;;17.10;51.30;;;;;;5088420;28;20201;-65
2023/03/17 11:23:41;;;;;;;4.37;2.53;;;17.20;51.10;;;;;;5091166;28;20682;-65
2023/03/17 11:26:41;;;;;;;3.80;2.63;;;17.20;51.20;;;;;;5090162;28;20209;-65
2023/03/17 11:29:21;;;;;;;3.67;3.07;;;17.20;50.40;;;;;;5089645;28;20254;-67
2023/03/17 11:31:59;;;;;;;3.73;2.70;;;17.30;51.70;;;;;;5091278;28;20235;-64
2023/03/17 11:34:48;;;;;;;3.87;2.43;;;17.40;50.90;;;;;;5092184;28;20214;-65
2023/03/17 11:37:53;;;;;;;3.07;2.33;;;17.40;49.70;;;;;;5089297;28;20208;-64
2023/03/17 11:40:44;;;;;;;2.90;2.50;;;17.50;49.60;;;;;;5049741;28;20214;-63
2023/03/17 11:43:35;;;;;;;2.73;2.20;;;17.50;49.30;;;;;;5103890;28;20233;-65
2023/03/17 11:46:26;;;;;;;6.53;2.80;;;17.50;49.90;;;;;;5089407;28;20267;-65
2023/03/17 11:49:13;;;;;;;3.33;2.40;;;17.50;50.10;;;;;;5090769;28;20292;-63
2023/03/17 11:52:10;;;;;;;3.87;2.97;;;17.50;50.00;;;;;;5080993;28;20214;-63
2023/03/17 11:54:49;;;;;;;5.50;2.80;;;17.50;49.90;;;;;;5090308;28;20202;-64
2023/03/17 11:57:26;;;;;;;3.20;2.90;;;17.50;50.00;;;;;;5091905;28;20281;-64
2023/03/17 12:00:15;;;;;;;5.07;2.90;;;17.60;50.00;;;;;;5089020;28;20590;-63
2023/03/17 12:02:50;;;;;;;5.20;3.20;;;17.60;50.60;;;;;;5091038;28;20563;-63
2023/03/17 12:05:26;;;;;;;3.20;2.87;;;17.50;49.00;;;;;;5091696;28;20230;-64
2023/03/17 12:08:10;;;;;;;4.83;2.97;;;17.50;49.90;;;;;;5092266;28;20219;-65
2023/03/17 12:10:45;;;;;;;5.50;3.20;;;17.40;49.40;;;;;;5090317;28;20654;-64
2023/03/17 12:13:28;;;;;;;8.20;3.20;;;17.40;50.50;;;;;;5088857;28;20717;-63
2023/03/17 12:16:03;;;;;;;3.30;2.93;;;17.50;50.20;;;;;;5088139;28;20205;-65
2023/03/17 12:18:45;;;;;;;4.00;3.17;;;17.50;49.60;;;;;;5089654;28;20192;-64
2023/03/17 12:21:19;;;;;;;3.70;2.93;;;17.50;49.80;;;;;;5087258;28;20719;-65
2023/03/17 12:23:48;;;;;;;3.37;3.00;;;17.40;48.90;;;;;;5089326;28;20207;-65
2023/03/17 12:26:26;;;;;;;5.47;3.60;;;17.40;49.40;;;;;;5089951;28;20199;-65
2023/03/17 12:29:03;;;;;;;3.73;3.07;;;17.40;50.30;;;;;;5089839;28;20226;-65
2023/03/17 12:31:43;;;;;;;3.70;3.27;;;17.50;50.30;;;;;;5090439;28;20249;-65
2023/03/17 12:34:22;;;;;;;4.90;3.17;;;17.50;51.50;;;;;;5090683;28;20204;-65
2023/03/17 12:36:49;;;;;;;3.67;3.07;;;17.60;51.20;;;;;;5092797;28;20210;-65
2023/03/17 12:39:31;;;;;;;2.93;2.63;;;17.60;50.20;;;;;;5090212;28;20231;-65
2023/03/17 12:42:26;;;;;;;5.10;3.77;;;17.60;48.80;;;;;;5086393;28;20222;-65
2023/03/17 12:45:02;;;;;;;3.87;3.23;;;17.60;49.80;;;;;;5087015;28;20247;-65
2023/03/17 12:47:38;;;;;;;5.63;3.70;;;17.70;49.90;;;;;;5090502;28;20604;-65
2023/03/17 12:50:11;;;;;;;4.93;3.57;;;17.70;50.20;;;;;;5091436;28;20209;-65
2023/03/17 12:52:59;;;;;;;3.70;3.10;;;17.70;51.20;;;;;;5089004;28;20693;-65
2023/03/17 12:55:30;;;;;;;5.13;3.03;;;17.80;51.20;;;;;;5089452;28;20197;-66
2023/03/17 12:58:17;;;;;;;3.10;2.80;;;17.80;49.50;;;;;;5089664;28;20214;-65
2023/03/17 13:00:56;;;;;;;5.23;3.20;;;17.70;48.80;;;;;;5087028;28;20199;-65
2023/03/17 13:03:26;;;;;;;3.60;3.30;;;17.70;50.10;;;;;;5087799;28;20204;-65
2023/03/17 13:06:02;;;;;;;5.70;3.50;;;17.70;49.90;;;;;;5090902;28;20274;-65
2023/03/17 13:08:35;;;;;;;3.00;2.70;;;17.70;49.80;;;;;;5092170;28;20220;-65
2023/03/17 13:11:17;;;;;;;3.87;2.43;;;17.80;50.40;;;;;;5094341;28;20532;-65